Terminal Aerodrome Forecast
Issued by NWS

Home | Current Version | Previous Version | Text Only | Print | Product List | Glossary On
Versions: 1 2 3 4 5 6 7 8 9 10 11 12 13 14
000
FTUS44 KCRP 271100
TAFALI
TAF
KALI 271126Z 2712/2812 02006KT P6SM SCT015
     FM271600 03006KT P6SM SCT035
     FM272100 08010KT P6SM FEW045
     FM280000 09005KT P6SM BKN035=

USA.gov is the U.S. government's official web portal to all federal, state and local government web resources and services.